createdAt,value
2022-12-09T00:09:30.769Z,85.39
2022-12-09T00:19:30.928Z,85.91
2022-12-09T00:29:31.163Z,85.18
2022-12-09T00:39:31.185Z,85.18
2022-12-09T00:49:31.690Z,85.81
2022-12-09T00:59:31.542Z,87.21
2022-12-09T01:09:32.197Z,87.31
2022-12-09T01:19:31.893Z,87.38
2022-12-09T01:29:32.273Z,88.53
2022-12-09T01:39:32.271Z,88.42
2022-12-09T01:49:32.589Z,89.36
2022-12-09T01:59:32.868Z,90.41
2022-12-09T02:09:32.971Z,90.41
2022-12-09T02:19:33.026Z,90.20
2022-12-09T02:29:33.645Z,89.26
2022-12-09T02:39:33.604Z,89.58
2022-12-09T02:49:33.831Z,88.64
2022-12-09T02:59:34.504Z,88.53
2022-12-09T03:09:34.132Z,88.64
2022-12-09T03:19:34.331Z,88.17
2022-12-09T03:29:36.177Z,87.76
2022-12-09T03:39:34.410Z,88.03
2022-12-09T03:49:34.940Z,88.76
2022-12-09T03:59:34.863Z,88.70
2022-12-09T04:09:35.244Z,87.76
2022-12-09T04:19:35.264Z,87.96
2022-12-09T04:29:35.719Z,87.61
2022-12-09T04:39:36.044Z,87.19
2022-12-09T04:49:35.977Z,87.71
2022-12-09T04:59:36.257Z,88.39
2022-12-09T05:09:36.549Z,89.32
2022-12-09T05:19:36.724Z,88.90
2022-12-09T05:29:36.935Z,89.22
2022-12-09T05:39:36.874Z,88.17
2022-12-09T05:49:37.255Z,87.96
2022-12-09T05:59:37.135Z,88.74
2022-12-09T06:09:37.378Z,88.32
2022-12-09T06:19:37.691Z,87.69
2022-12-09T06:29:40.736Z,87.23
2022-12-09T06:39:37.630Z,87.13
2022-12-09T06:49:38.441Z,87.65
2022-12-09T06:59:38.171Z,87.55
2022-12-09T07:09:38.495Z,87.07
2022-12-09T07:19:38.746Z,86.36
2022-12-09T07:29:38.438Z,85.31
2022-12-09T07:39:38.836Z,85.49
2022-12-09T07:49:39.069Z,86.74
2022-12-09T07:59:39.132Z,86.63
2022-12-09T08:09:39.512Z,85.34
2022-12-09T08:19:39.533Z,85.97
2022-12-09T08:29:40.210Z,87.01
2022-12-09T08:39:39.865Z,86.97
2022-12-09T08:49:40.353Z,85.93
2022-12-09T08:59:45.061Z,85.78
2022-12-09T09:09:41.221Z,85.99
2022-12-09T09:19:40.886Z,85.58
2022-12-09T09:29:40.527Z,85.22
2022-12-09T09:39:40.641Z,85.33
2022-12-09T09:49:40.823Z,85.02
2022-12-09T09:59:41.226Z,84.81
2022-12-09T10:09:41.517Z,86.12
2022-12-09T10:19:42.779Z,85.39
2022-12-09T10:29:41.624Z,84.73
2022-12-09T10:39:42.002Z,84.14
2022-12-09T10:49:42.299Z,83.86
2022-12-09T10:59:44.345Z,82.36
2022-12-09T11:09:42.730Z,84.27
2022-12-09T11:19:42.737Z,84.27
2022-12-09T11:29:42.972Z,84.16
2022-12-09T11:39:42.702Z,84.22
2022-12-09T11:49:42.758Z,84.74
2022-12-09T11:59:43.878Z,86.41
2022-12-09T12:09:47.407Z,87.13
2022-12-09T12:19:43.064Z,86.82
2022-12-09T12:29:43.297Z,86.99
2022-12-09T12:39:43.542Z,86.33
2022-12-09T12:49:43.795Z,86.22
2022-12-09T12:59:44.106Z,86.16
2022-12-09T13:09:44.261Z,86.36
2022-12-09T13:19:44.288Z,86.99
2022-12-09T13:29:45.536Z,87.71
2022-12-09T13:39:44.763Z,87.40
2022-12-09T13:49:45.006Z,86.93
2022-12-09T13:59:45.243Z,87.61
2022-12-09T14:09:45.468Z,88.07
2022-12-09T14:19:45.696Z,88.48
2022-12-09T14:29:45.956Z,89.31
2022-12-09T14:39:46.221Z,90.39
2022-12-09T14:49:49.448Z,91.02
2022-12-09T14:59:46.516Z,91.33
2022-12-09T15:09:46.956Z,91.02
2022-12-09T15:20:02.172Z,90.60
2022-12-09T15:29:48.153Z,91.06
2022-12-09T15:39:47.528Z,91.47
2022-12-09T15:49:51.516Z,91.47
2022-12-09T15:59:53.922Z,91.78
2022-12-09T16:09:49.091Z,91.89
2022-12-09T16:19:48.109Z,92.10
2022-12-09T16:29:48.432Z,92.35
2022-12-09T16:39:48.664Z,92.14
2022-12-09T16:49:48.820Z,92.41
2022-12-09T16:59:49.039Z,92.45
2022-12-09T17:10:10.157Z,93.07
2022-12-09T17:19:49.300Z,93.33
2022-12-09T17:29:49.504Z,93.64
2022-12-09T17:39:54.604Z,93.85
2022-12-09T17:49:50.717Z,94.26
2022-12-09T17:59:50.082Z,94.37
2022-12-09T18:09:54.483Z,95.09
2022-12-09T18:19:51.270Z,95.03
2022-12-09T18:29:50.620Z,95.56
2022-12-09T18:39:50.514Z,96.03
2022-12-09T18:49:50.827Z,96.14
2022-12-09T18:59:51.789Z,96.18
2022-12-09T19:09:52.389Z,96.59
2022-12-09T19:19:52.045Z,96.59
2022-12-09T19:29:51.859Z,96.80
2022-12-09T19:39:52.001Z,97.01
2022-12-09T19:49:52.187Z,96.80
2022-12-09T19:59:52.332Z,96.70
2022-12-09T20:09:52.549Z,96.18
2022-12-09T20:19:52.654Z,96.28
2022-12-09T20:29:54.764Z,96.18
2022-12-09T20:39:52.979Z,95.87
2022-12-09T20:49:53.240Z,95.45
2022-12-09T20:59:53.336Z,95.35
2022-12-09T21:09:53.349Z,95.40
2022-12-09T21:19:54.431Z,95.14
2022-12-09T21:29:53.884Z,95.30
2022-12-09T21:39:53.884Z,95.20
2022-12-09T21:49:55.852Z,94.99
2022-12-09T21:59:53.866Z,95.40
2022-12-09T22:09:54.155Z,95.20
2022-12-09T22:20:22.507Z,94.99
2022-12-09T22:29:55.453Z,94.68
2022-12-09T22:39:54.713Z,95.30
2022-12-09T22:49:54.943Z,95.93
2022-12-09T22:59:55.282Z,96.55
2022-12-09T23:09:55.310Z,96.97
2022-12-09T23:19:55.665Z,97.17
2022-12-09T23:29:55.694Z,97.49
2022-12-09T23:39:56.013Z,97.85
2022-12-09T23:49:56.042Z,98.16
2022-12-09T23:59:56.297Z,98.36
